Time;durP1;ratioP1;P1;durP2;ratioP2;P2;SDS_P1;SDS_P2;PMS_P1;PMS_P2;Temp;Humidity;BMP_temperature;BMP_pressure;BME280_temperature;BME280_humidity;BME280_pressure;Samples;Min_cycle;Max_cycle;Signal;HPM_P1;HPM_P2
2021/11/10 00:00:16;;;;;;;11.63;3.40;;;12.10;97.30;;;;;;5093143;28;20062;-78
2021/11/10 00:02:42;;;;;;;11.60;2.08;;;12.10;97.30;;;;;;5094317;28;20028;-78
2021/11/10 00:05:09;;;;;;;16.17;2.88;;;12.00;97.40;;;;;;5092949;28;20047;-78
2021/11/10 00:07:35;;;;;;;16.55;3.22;;;12.00;97.40;;;;;;5059438;28;20123;-79
2021/11/10 00:10:00;;;;;;;9.77;2.78;;;12.00;97.50;;;;;;5094199;28;20122;-78
2021/11/10 00:12:26;;;;;;;11.88;2.55;;;12.00;97.50;;;;;;5076295;28;20491;-78
2021/11/10 00:14:52;;;;;;;17.20;3.50;;;12.10;97.60;;;;;;5093906;28;20056;-78
2021/11/10 00:17:18;;;;;;;8.95;2.22;;;12.10;97.60;;;;;;5093047;28;20032;-79
2021/11/10 00:19:44;;;;;;;13.95;3.05;;;12.10;97.60;;;;;;5092824;28;20039;-79
2021/11/10 00:22:10;;;;;;;13.00;2.78;;;12.10;97.60;;;;;;5094047;28;20043;-79
2021/11/10 00:24:36;;;;;;;12.88;3.35;;;12.10;97.60;;;;;;5094092;28;20028;-78
2021/11/10 00:27:02;;;;;;;14.27;2.53;;;12.10;97.60;;;;;;5059058;28;20437;-80
2021/11/10 00:29:27;;;;;;;12.95;2.65;;;12.10;97.60;;;;;;5093877;28;20391;-78
2021/11/10 00:31:53;;;;;;;13.05;2.45;;;12.10;97.60;;;;;;5093567;28;20050;-79
2021/11/10 00:34:19;;;;;;;12.77;2.63;;;12.10;97.60;;;;;;5075661;28;20016;-78
2021/11/10 00:36:45;;;;;;;19.70;2.90;;;12.20;97.70;;;;;;5091949;28;20036;-79
2021/11/10 00:39:11;;;;;;;;;;;12.10;97.60;;;;;;5076347;28;20062;-79
2021/11/10 00:41:36;;;;;;;13.00;2.72;;;12.20;97.70;;;;;;5093710;28;20361;-79
2021/11/10 00:44:02;;;;;;;13.77;2.50;;;12.20;97.60;;;;;;5093605;28;20035;-79
2021/11/10 00:46:29;;;;;;;11.52;2.45;;;12.20;97.60;;;;;;5091973;28;20063;-78
2021/11/10 00:48:55;;;;;;;11.98;2.88;;;12.30;97.60;;;;;;5092086;28;20044;-78
2021/11/10 00:51:21;;;;;;;14.93;3.17;;;12.30;97.60;;;;;;5093592;28;20051;-79
2021/11/10 00:53:47;;;;;;;10.05;3.25;;;12.30;97.60;;;;;;5075213;28;20361;-78
2021/11/10 00:56:12;;;;;;;12.45;2.85;;;12.30;97.60;;;;;;5075234;28;20031;-79
2021/11/10 00:58:38;;;;;;;11.77;2.83;;;12.30;97.60;;;;;;5092139;28;20033;-79
2021/11/10 01:01:04;;;;;;;24.23;5.47;;;12.40;97.60;;;;;;5093347;28;20059;-79
2021/11/10 01:03:30;;;;;;;18.65;5.53;;;12.40;97.60;;;;;;5093123;28;20382;-79
2021/11/10 01:05:59;;;;;;;14.45;3.20;;;12.40;97.60;;;;;;5093230;28;20040;-78
2021/11/10 01:08:26;;;;;;;13.98;3.00;;;12.50;97.60;;;;;;5093090;28;20062;-78
2021/11/10 01:10:53;;;;;;;9.88;3.33;;;12.50;97.60;;;;;;5074916;28;20414;-79
2021/11/10 01:13:20;;;;;;;12.23;2.70;;;12.60;97.60;;;;;;5091576;28;20031;-78
2021/11/10 01:15:46;;;;;;;13.75;3.17;;;12.60;97.50;;;;;;5092935;28;20024;-78
2021/11/10 01:18:12;;;;;;;14.30;2.95;;;12.60;97.50;;;;;;5091567;28;20490;-80
2021/11/10 01:20:39;;;;;;;12.25;2.83;;;12.60;97.40;;;;;;5093018;28;20499;-78
2021/11/10 01:23:06;;;;;;;15.27;3.05;;;12.50;97.40;;;;;;5092772;28;20063;-79
2021/11/10 01:25:32;;;;;;;11.80;2.97;;;12.50;97.40;;;;;;5074774;28;20482;-79
2021/11/10 01:27:58;;;;;;;;;;;12.40;97.40;;;;;;5093170;28;20481;-79
2021/11/10 01:30:23;;;;;;;13.98;3.20;;;12.50;97.50;;;;;;5092670;28;19951;-79
2021/11/10 01:32:49;;;;;;;12.98;2.65;;;12.40;97.40;;;;;;5091339;28;20473;-78
2021/11/10 01:35:16;;;;;;;12.20;3.17;;;12.40;97.50;;;;;;5091233;28;20108;-79
2021/11/10 01:37:41;;;;;;;;;;;12.40;97.50;;;;;;5091666;28;20028;-79
2021/11/10 01:40:08;;;;;;;13.88;3.30;;;12.40;97.50;;;;;;5091215;28;19931;-79
2021/11/10 01:42:41;;;;;;;15.13;3.13;;;12.50;97.50;;;;;;5091094;28;20036;-80
2021/11/10 01:45:09;;;;;;;11.43;2.95;;;12.40;97.50;;;;;;5091121;28;20449;-80
2021/11/10 01:47:35;;;;;;;10.82;3.22;;;12.40;97.50;;;;;;5091250;28;20379;-79
2021/11/10 01:50:01;;;;;;;10.25;3.08;;;12.40;97.60;;;;;;5057766;28;20034;-79
2021/11/10 01:52:28;;;;;;;12.32;3.03;;;12.40;97.60;;;;;;5092352;28;20544;-79
2021/11/10 01:54:55;;;;;;;11.90;3.60;;;12.30;97.60;;;;;;5092166;28;20043;-79
2021/11/10 01:57:20;;;;;;;13.40;3.22;;;12.30;97.70;;;;;;5092181;28;20028;-78
2021/11/10 01:59:49;;;;;;;15.82;3.55;;;12.30;97.80;;;;;;5074246;28;20382;-79
2021/11/10 02:02:24;;;;;;;13.75;3.38;;;12.30;97.80;;;;;;5092086;28;20032;-79
2021/11/10 02:04:51;;;;;;;15.07;3.88;;;12.30;97.80;;;;;;5092032;28;20435;-79
2021/11/10 02:07:18;;;;;;;14.43;3.38;;;12.30;97.80;;;;;;5090628;28;20024;-78
2021/11/10 02:09:45;;;;;;;11.50;2.95;;;12.40;97.90;;;;;;5073730;28;20516;-78
2021/11/10 02:12:12;;;;;;;12.65;3.30;;;12.40;97.80;;;;;;5090786;28;20482;-78
2021/11/10 02:14:38;;;;;;;7.95;2.80;;;12.40;97.80;;;;;;5073665;28;20412;-81
2021/11/10 02:17:06;;;;;;;14.88;4.22;;;12.30;97.80;;;;;;5092035;28;20374;-78
2021/11/10 02:19:32;;;;;;;17.38;3.60;;;12.30;97.90;;;;;;5090469;28;20558;-80
2021/11/10 02:22:00;;;;;;;11.18;2.63;;;12.30;97.90;;;;;;5090748;28;20055;-79
2021/11/10 02:24:29;;;;;;;12.90;3.40;;;12.30;97.90;;;;;;5091641;28;20020;-79
2021/11/10 02:26:55;;;;;;;12.23;3.28;;;12.30;97.90;;;;;;5090244;28;20031;-80
2021/11/10 02:29:23;;;;;;;13.27;3.30;;;12.30;98.00;;;;;;5090380;28;20378;-78
2021/11/10 02:31:51;;;;;;;14.05;3.28;;;12.30;98.00;;;;;;5091782;28;20032;-77
2021/11/10 02:34:17;;;;;;;11.85;3.10;;;12.30;98.00;;;;;;5090153;28;20051;-79
2021/11/10 02:36:44;;;;;;;13.52;3.70;;;12.30;98.00;;;;;;5073396;28;20119;-79
2021/11/10 02:39:28;;;;;;;13.35;3.35;;;12.30;98.00;;;;;;5090217;28;20494;-79
2021/11/10 02:41:54;;;;;;;12.60;3.25;;;12.30;98.00;;;;;;5090221;28;20375;-80
2021/11/10 02:44:21;;;;;;;15.95;3.33;;;12.30;98.00;;;;;;5090190;28;20043;-79
2021/11/10 02:46:49;;;;;;;16.75;3.30;;;12.30;98.00;;;;;;5073237;28;20537;-79
2021/11/10 02:49:15;;;;;;;10.02;3.30;;;12.30;98.00;;;;;;5091322;28;20020;-78
2021/11/10 02:52:05;;;;;;;20.10;3.70;;;12.30;98.00;;;;;;5090032;28;20024;-78
2021/11/10 02:54:34;;;;;;;14.82;3.30;;;12.20;98.00;;;;;;5091376;28;20028;-79
2021/11/10 02:57:02;;;;;;;11.20;3.70;;;12.20;98.00;;;;;;5091333;28;20490;-79
2021/11/10 02:59:28;;;;;;;16.48;3.28;;;12.10;98.00;;;;;;5090964;28;20097;-78
2021/11/10 03:01:55;;;;;;;12.45;3.70;;;12.00;98.00;;;;;;5091233;28;20024;-79
2021/11/10 03:04:23;;;;;;;19.25;4.15;;;12.00;98.30;;;;;;5089813;28;20024;-78
2021/11/10 03:06:50;;;;;;;12.30;3.65;;;11.90;98.10;;;;;;5091227;28;20387;-79
2021/11/10 03:09:25;;;;;;;17.83;4.13;;;11.90;98.10;;;;;;5091227;28;20062;-79
2021/11/10 03:11:53;;;;;;;17.70;3.95;;;11.80;98.20;;;;;;5090085;28;20031;-78
2021/11/10 03:14:19;;;;;;;11.50;3.92;;;11.70;98.20;;;;;;5091100;28;20028;-79
2021/11/10 03:16:45;;;;;;;14.93;3.75;;;11.70;98.30;;;;;;5089716;28;20489;-80
2021/11/10 03:19:12;;;;;;;15.10;4.05;;;11.60;98.40;;;;;;5091081;28;20068;-79
2021/11/10 03:21:38;;;;;;;;;;;11.60;98.40;;;;;;5090192;28;20386;-78
2021/11/10 03:24:04;;;;;;;12.80;3.97;;;11.60;98.40;;;;;;5073109;28;19919;-79
2021/11/10 03:26:30;;;;;;;;;;;11.50;98.40;;;;;;5073311;28;20032;-78
2021/11/10 03:28:56;;;;;;;15.05;3.67;;;11.50;98.40;;;;;;5091041;28;19965;-79
2021/11/10 03:31:21;;;;;;;12.40;4.22;;;11.40;98.30;;;;;;5089688;28;20026;-79
2021/11/10 03:33:47;;;;;;;15.27;3.65;;;11.40;98.40;;;;;;5072832;28;20040;-79
2021/11/10 03:36:14;;;;;;;15.60;3.92;;;11.40;98.50;;;;;;5089737;28;20497;-78
2021/11/10 03:38:40;;;;;;;17.23;4.55;;;11.30;98.50;;;;;;5089691;28;20043;-80
2021/11/10 03:41:06;;;;;;;17.52;4.18;;;11.30;98.60;;;;;;5089570;28;20101;-78
2021/11/10 03:43:32;;;;;;;16.08;3.92;;;11.30;98.70;;;;;;5089744;28;20039;-79
2021/11/10 03:45:58;;;;;;;19.20;4.60;;;11.30;98.70;;;;;;5089584;28;20025;-78
2021/11/10 03:48:23;;;;;;;13.35;4.22;;;11.30;98.80;;;;;;5090597;28;20088;-79
2021/11/10 03:50:49;;;;;;;12.43;4.20;;;11.20;98.80;;;;;;5089594;28;20219;-78
2021/11/10 03:53:15;;;;;;;13.38;3.75;;;11.20;98.80;;;;;;5089545;28;20035;-78
2021/11/10 03:55:40;;;;;;;12.20;4.25;;;11.10;98.90;;;;;;5089521;28;20446;-79
2021/11/10 03:58:09;;;;;;;12.23;3.92;;;11.10;98.90;;;;;;5090785;28;20032;-79
2021/11/10 04:00:35;;;;;;;13.45;4.28;;;11.00;99.10;;;;;;5090662;28;20024;-79
2021/11/10 04:03:01;;;;;;;18.55;5.28;;;11.00;99.00;;;;;;5089408;28;20051;-79
2021/11/10 04:05:27;;;;;;;15.18;4.53;;;10.90;99.00;;;;;;5090791;28;20039;-78
2021/11/10 04:07:52;;;;;;;19.77;5.82;;;10.90;99.10;;;;;;5090642;28;20029;-79
2021/11/10 04:10:19;;;;;;;17.42;4.07;;;10.80;99.10;;;;;;5089347;28;20539;-79
2021/11/10 04:12:44;;;;;;;17.00;4.43;;;10.70;99.20;;;;;;5092438;28;20016;-79
2021/11/10 04:15:10;;;;;;;20.30;5.43;;;10.70;99.30;;;;;;5094137;28;20086;-79
2021/11/10 04:17:36;;;;;;;22.08;4.35;;;10.70;99.40;;;;;;5094188;28;20358;-78
2021/11/10 04:20:03;;;;;;;13.45;3.90;;;10.70;99.50;;;;;;5092858;28;20032;-79
2021/11/10 04:22:28;;;;;;;23.17;4.60;;;10.70;99.60;;;;;;5094023;28;20043;-78
2021/11/10 04:24:54;;;;;;;17.70;4.43;;;10.80;99.70;;;;;;5093969;28;20032;-79
2021/11/10 04:27:20;;;;;;;13.95;4.68;;;10.80;99.70;;;;;;5075757;28;20119;-78
2021/11/10 04:29:47;;;;;;;13.52;4.05;;;10.90;99.70;;;;;;5093972;28;20047;-79
2021/11/10 04:32:13;;;;;;;13.20;3.60;;;10.90;99.70;;;;;;5093815;28;20099;-78
2021/11/10 04:34:39;;;;;;;13.60;3.45;;;10.90;99.60;;;;;;5093744;28;20056;-78
2021/11/10 04:37:06;;;;;;;13.20;3.97;;;10.90;99.50;;;;;;5092723;28;20059;-78
2021/11/10 04:39:33;;;;;;;14.77;4.57;;;10.80;99.40;;;;;;5093805;28;20028;-78
2021/11/10 04:41:59;;;;;;;11.35;4.00;;;10.70;99.50;;;;;;5092319;28;20039;-79
2021/11/10 04:44:24;;;;;;;15.63;3.92;;;10.60;99.60;;;;;;5093456;28;20020;-78
2021/11/10 04:46:52;;;;;;;13.93;3.95;;;10.50;99.70;;;;;;5093187;28;20491;-78
2021/11/10 04:49:18;;;;;;;18.70;5.18;;;10.50;99.80;;;;;;5092060;28;20043;-79
2021/11/10 04:51:45;;;;;;;14.43;4.30;;;10.40;99.90;;;;;;5093281;28;20028;-79
2021/11/10 04:54:18;;;;;;;15.43;3.63;;;10.40;99.80;;;;;;5091747;28;20043;-77
2021/11/10 04:56:44;;;;;;;17.05;4.20;;;10.30;99.70;;;;;;5093131;28;20370;-78
2021/11/10 04:59:09;;;;;;;14.45;4.82;;;10.20;99.80;;;;;;5091747;28;20028;-78
2021/11/10 05:01:38;;;;;;;12.73;4.45;;;10.10;99.90;;;;;;5058192;28;20092;-79
2021/11/10 05:04:07;;;;;;;13.00;4.20;;;10.10;99.90;;;;;;5091784;28;20559;-78
2021/11/10 05:06:34;;;;;;;14.63;4.15;;;10.10;99.90;;;;;;5093258;28;20028;-79
2021/11/10 05:08:59;;;;;;;16.73;4.53;;;10.10;99.90;;;;;;5093056;28;20092;-78
2021/11/10 05:11:25;;;;;;;22.02;4.95;;;10.20;99.90;;;;;;5093178;28;20433;-79
2021/11/10 05:13:51;;;;;;;16.98;4.28;;;10.20;99.90;;;;;;5091927;28;20050;-79
2021/11/10 05:16:18;;;;;;;10.73;2.90;;;10.20;99.90;;;;;;5093339;28;20046;-78
2021/11/10 05:18:44;;;;;;;;;;;10.20;99.90;;;;;;5093531;28;20073;-79
2021/11/10 05:21:09;;;;;;;14.48;4.25;;;10.10;99.90;;;;;;5091661;28;19951;-79
2021/11/10 05:23:35;;;;;;;11.32;4.13;;;10.10;99.90;;;;;;5057841;28;20035;-78
2021/11/10 05:26:01;;;;;;;14.32;5.30;;;10.00;99.90;;;;;;5091494;28;20336;-78
2021/11/10 05:28:27;;;;;;;9.15;3.70;;;10.00;99.90;;;;;;5091539;28;20042;-78
2021/11/10 05:30:53;;;;;;;11.45;3.30;;;10.00;99.90;;;;;;5092689;28;20028;-78
2021/11/10 05:33:19;;;;;;;17.85;4.57;;;10.00;99.90;;;;;;5092677;28;20539;-78
2021/11/10 05:35:45;;;;;;;18.35;4.38;;;10.00;99.90;;;;;;5091374;28;20089;-77
2021/11/10 05:38:11;;;;;;;18.02;4.47;;;10.10;99.90;;;;;;5092527;28;20034;-78
2021/11/10 05:40:36;;;;;;;15.93;4.50;;;10.10;99.90;;;;;;5092542;28;20031;-78
2021/11/10 05:43:05;;;;;;;15.10;5.07;;;10.10;99.90;;;;;;5074236;28;20032;-78
2021/11/10 05:45:31;;;;;;;16.15;3.85;;;10.10;99.90;;;;;;5092404;28;20576;-78
2021/11/10 05:47:57;;;;;;;;;;;10.10;99.90;;;;;;5074629;28;20075;-78
2021/11/10 05:50:22;;;;;;;10.75;3.60;;;10.10;99.90;;;;;;5092782;28;20334;-78
2021/11/10 05:52:48;;;;;;;11.05;3.83;;;10.10;99.90;;;;;;5090772;28;20024;-78
2021/11/10 05:55:15;;;;;;;10.15;3.58;;;10.10;99.90;;;;;;5092195;28;20032;-77
2021/11/10 05:57:42;;;;;;;19.83;6.15;;;10.00;99.90;;;;;;5092292;28;20028;-79
2021/11/10 06:00:10;;;;;;;11.70;4.35;;;10.00;99.90;;;;;;5090978;28;20024;-77
2021/11/10 06:02:36;;;;;;;17.77;4.60;;;9.90;99.90;;;;;;5090821;28;20024;-78
2021/11/10 06:05:02;;;;;;;17.70;5.50;;;9.90;99.90;;;;;;5090834;28;20501;-78
2021/11/10 06:07:29;;;;;;;17.95;4.90;;;9.90;99.90;;;;;;5091963;28;20059;-78
2021/11/10 06:09:54;;;;;;;19.13;5.30;;;10.00;99.90;;;;;;5092357;28;20027;-77
2021/11/10 06:12:20;;;;;;;11.88;4.15;;;10.00;99.90;;;;;;5073782;28;20020;-78
2021/11/10 06:14:46;;;;;;;13.68;4.63;;;10.10;99.90;;;;;;5091833;28;20067;-77
2021/11/10 06:17:11;;;;;;;13.52;4.00;;;10.10;99.90;;;;;;5091754;28;20036;-78
2021/11/10 06:19:37;;;;;;;19.05;4.32;;;10.00;99.90;;;;;;5091769;28;20383;-77
2021/11/10 06:22:03;;;;;;;14.63;4.57;;;10.00;99.90;;;;;;5056928;28;20128;-77
2021/11/10 06:24:29;;;;;;;13.90;4.15;;;9.90;99.90;;;;;;5091575;28;20028;-78
2021/11/10 06:26:55;;;;;;;17.00;4.10;;;9.90;99.90;;;;;;5092032;28;20427;-79
2021/11/10 06:29:22;;;;;;;11.07;3.42;;;9.80;99.90;;;;;;5090121;28;20448;-78
2021/11/10 06:31:48;;;;;;;12.32;4.75;;;9.80;99.90;;;;;;5090577;28;20081;-78
2021/11/10 06:34:13;;;;;;;16.83;5.88;;;9.80;99.90;;;;;;5089526;28;20057;-78
2021/11/10 06:36:39;;;;;;;19.95;6.97;;;9.70;99.90;;;;;;5090277;28;20123;-78
2021/11/10 06:39:05;;;;;;;20.08;7.30;;;9.80;99.90;;;;;;5073221;28;20506;-78
2021/11/10 06:41:31;;;;;;;20.55;6.10;;;9.80;99.90;;;;;;5091516;28;20084;-78
2021/11/10 06:43:57;;;;;;;;;;;9.90;99.90;;;;;;5057348;28;20024;-78
2021/11/10 06:46:23;;;;;;;17.67;5.93;;;9.90;99.90;;;;;;5091352;28;20003;-78
2021/11/10 06:48:48;;;;;;;16.08;4.88;;;10.00;99.90;;;;;;5072994;28;20399;-76
2021/11/10 06:51:14;;;;;;;22.70;6.78;;;10.00;99.90;;;;;;5091015;28;20031;-78
2021/11/10 06:53:43;;;;;;;17.58;5.13;;;10.10;99.90;;;;;;5072739;28;20036;-78
2021/11/10 06:56:09;;;;;;;14.40;4.93;;;10.20;99.90;;;;;;5056458;28;20456;-78
2021/11/10 06:58:35;;;;;;;;;;;10.40;99.90;;;;;;5090320;28;20028;-77
2021/11/10 07:01:01;;;;;;;16.90;5.65;;;10.50;99.90;;;;;;5089899;28;20003;-78
2021/11/10 07:03:26;;;;;;;15.20;5.53;;;10.60;99.90;;;;;;5072901;28;20267;-78
2021/11/10 07:05:52;;;;;;;16.48;5.70;;;10.60;99.90;;;;;;5090018;28;20506;-78
2021/11/10 07:08:18;;;;;;;23.15;5.28;;;10.60;99.90;;;;;;5089314;28;20070;-78
2021/11/10 07:10:44;;;;;;;19.50;6.43;;;10.70;99.90;;;;;;5091244;28;20136;-78
2021/11/10 07:13:09;;;;;;;14.65;6.00;;;10.70;99.90;;;;;;5072655;28;20085;-78
2021/11/10 07:15:35;;;;;;;18.65;4.72;;;10.70;99.90;;;;;;5089425;28;20028;-79
2021/11/10 07:18:02;;;;;;;14.85;4.70;;;10.80;99.90;;;;;;5091287;28;20036;-78
2021/11/10 07:20:27;;;;;;;16.58;5.18;;;10.80;99.90;;;;;;5090884;28;20040;-76
2021/11/10 07:22:58;;;;;;;19.02;5.88;;;10.80;99.90;;;;;;5090660;28;20055;-78
2021/11/10 07:25:24;;;;;;;15.10;4.88;;;10.90;99.90;;;;;;5089586;28;20077;-77
2021/11/10 07:27:49;;;;;;;22.20;6.38;;;10.90;99.90;;;;;;5072379;28;20127;-77
2021/11/10 07:30:16;;;;;;;13.90;4.55;;;10.90;99.90;;;;;;5089502;28;20035;-78
2021/11/10 07:32:42;;;;;;;;;;;11.00;99.90;;;;;;5073136;28;20032;-77
2021/11/10 07:35:09;;;;;;;16.63;4.87;;;11.00;99.90;;;;;;5089600;28;19939;-78
2021/11/10 07:37:34;;;;;;;17.67;4.47;;;11.00;99.90;;;;;;5089468;28;20036;-79
2021/11/10 07:40:00;;;;;;;19.45;4.97;;;11.00;99.90;;;;;;5089190;28;20024;-78
2021/11/10 07:42:26;;;;;;;14.40;4.55;;;10.90;99.90;;;;;;5089516;28;20393;-78
2021/11/10 07:45:05;;;;;;;19.23;5.43;;;10.80;99.90;;;;;;5090717;28;20032;-77
2021/11/10 07:47:38;;;;;;;16.58;4.72;;;10.80;99.90;;;;;;5092100;28;20505;-78
2021/11/10 07:50:05;;;;;;;17.48;5.03;;;10.80;99.90;;;;;;5092936;28;20032;-77
2021/11/10 07:52:31;;;;;;;15.65;5.10;;;10.90;99.90;;;;;;5076284;28;20693;-77
2021/11/10 07:54:56;;;;;;;17.55;5.03;;;10.90;99.90;;;;;;5094239;28;20031;-78
2021/11/10 07:57:22;;;;;;;18.00;4.90;;;11.00;99.90;;;;;;5075823;28;20084;-78
2021/11/10 07:59:48;;;;;;;18.50;5.55;;;11.00;99.90;;;;;;5059570;28;20024;-78
2021/11/10 08:02:13;;;;;;;12.95;5.22;;;11.10;99.90;;;;;;5092437;28;20035;-78
2021/11/10 08:04:39;;;;;;;19.60;5.10;;;11.10;99.90;;;;;;5075698;28;20857;-77
2021/11/10 08:07:05;;;;;;;24.40;6.57;;;11.10;99.90;;;;;;5092776;28;20035;-78
2021/11/10 08:09:31;;;;;;;22.33;6.05;;;11.20;99.90;;;;;;5075775;28;20023;-78
2021/11/10 08:11:57;;;;;;;16.33;5.63;;;11.30;99.90;;;;;;5092856;28;20039;-77
2021/11/10 08:14:23;;;;;;;21.85;5.78;;;11.30;99.90;;;;;;5092959;28;20024;-76
2021/11/10 08:16:49;;;;;;;16.95;5.13;;;11.30;99.90;;;;;;5093886;28;20115;-77
2021/11/10 08:19:15;;;;;;;16.30;5.82;;;11.30;99.90;;;;;;5093707;28;20367;-77
2021/11/10 08:21:41;;;;;;;18.42;5.93;;;11.30;99.90;;;;;;5092550;28;20030;-77
2021/11/10 08:24:07;;;;;;;19.73;5.72;;;11.30;99.90;;;;;;5092065;28;20036;-76
2021/11/10 08:26:32;;;;;;;15.85;5.10;;;11.40;99.90;;;;;;5092466;28;20051;-76
2021/11/10 08:28:58;;;;;;;20.50;5.30;;;11.50;99.90;;;;;;5093957;28;20447;-77
2021/11/10 08:31:24;;;;;;;14.52;4.78;;;11.60;99.90;;;;;;5092277;28;20028;-77
2021/11/10 08:33:50;;;;;;;15.85;6.47;;;11.60;99.90;;;;;;5091592;28;20508;-77
2021/11/10 08:36:16;;;;;;;19.77;5.57;;;11.70;99.90;;;;;;5091706;28;20505;-77
2021/11/10 08:38:41;;;;;;;18.83;5.30;;;11.80;99.90;;;;;;5092107;28;20036;-78
2021/11/10 08:41:07;;;;;;;26.42;6.30;;;11.90;99.90;;;;;;5074989;28;20028;-76
2021/11/10 08:43:33;;;;;;;22.88;5.53;;;11.90;99.90;;;;;;5093272;28;20111;-78
2021/11/10 08:45:59;;;;;;;24.50;6.13;;;12.00;99.90;;;;;;5091992;28;20412;-78
2021/11/10 08:48:26;;;;;;;26.35;6.47;;;12.10;99.90;;;;;;5092805;28;20068;-78
2021/11/10 08:50:52;;;;;;;22.48;6.32;;;12.10;99.90;;;;;;5092837;28;20118;-78
2021/11/10 08:53:21;;;;;;;20.58;6.28;;;12.20;99.90;;;;;;5092700;28;20447;-77
2021/11/10 08:55:48;;;;;;;20.92;6.15;;;12.20;99.90;;;;;;5092565;28;20073;-78
2021/11/10 08:58:15;;;;;;;25.77;6.18;;;12.30;99.90;;;;;;5091044;28;20363;-76
2021/11/10 09:00:42;;;;;;;19.25;5.80;;;12.40;99.90;;;;;;5090169;28;20081;-78
2021/11/10 09:03:08;;;;;;;17.48;5.72;;;12.60;99.90;;;;;;5089917;28;20024;-77
2021/11/10 09:05:34;;;;;;;21.80;5.70;;;13.00;99.90;;;;;;5090861;28;20090;-76
2021/11/10 09:08:00;;;;;;;18.83;5.63;;;13.30;99.90;;;;;;5096354;28;20032;-77
2021/11/10 09:10:26;;;;;;;29.25;9.55;;;13.50;99.90;;;;;;5102307;28;20119;-77
2021/11/10 09:12:53;;;;;;;16.58;6.07;;;13.90;99.80;;;;;;5083787;28;20077;-76
2021/11/10 09:15:20;;;;;;;16.55;5.72;;;14.00;99.10;;;;;;5101986;28;20095;-78
2021/11/10 09:17:47;;;;;;;16.30;5.60;;;14.20;98.70;;;;;;5099875;28;20367;-78
2021/11/10 09:20:19;;;;;;;14.88;4.90;;;14.20;98.30;;;;;;5108448;28;20060;-77
2021/11/10 09:22:45;;;;;;;16.25;5.60;;;14.20;98.00;;;;;;5103658;28;20027;-76
2021/11/10 09:25:14;;;;;;;14.68;5.43;;;14.30;98.10;;;;;;5101666;28;20039;-76
2021/11/10 09:27:40;;;;;;;14.40;5.45;;;14.80;98.80;;;;;;5100287;28;20028;-78
2021/11/10 09:30:10;;;;;;;11.15;5.05;;;15.70;98.70;;;;;;5102515;28;20024;-78
2021/11/10 09:32:39;;;;;;;18.83;5.03;;;16.20;97.20;;;;;;5100605;28;20008;-78
2021/11/10 09:35:07;;;;;;;13.25;5.20;;;16.30;96.10;;;;;;5102116;28;20065;-78
2021/11/10 09:37:34;;;;;;;21.52;5.68;;;16.20;95.60;;;;;;5101157;28;20036;-78
2021/11/10 09:40:00;;;;;;;14.35;4.10;;;16.10;95.20;;;;;;5100820;28;20082;-78
2021/11/10 09:42:27;;;;;;;15.07;4.53;;;15.90;94.70;;;;;;5101780;28;20020;-77
2021/11/10 09:44:54;;;;;;;13.90;4.13;;;15.60;94.60;;;;;;5102526;28;20127;-78
2021/11/10 09:47:21;;;;;;;13.13;4.20;;;15.50;94.60;;;;;;5100343;28;20055;-78
2021/11/10 09:49:47;;;;;;;;;;;15.40;94.60;;;;;;5100899;28;20095;-78
2021/11/10 09:52:12;;;;;;;21.15;5.28;;;15.40;95.10;;;;;;5098396;28;19915;-76
2021/11/10 09:54:38;;;;;;;13.80;4.00;;;15.50;95.10;;;;;;5102981;28;20072;-76
2021/11/10 09:57:04;;;;;;;15.75;5.47;;;15.60;94.70;;;;;;5081751;28;20028;-78
2021/11/10 09:59:30;;;;;;;20.45;4.88;;;15.70;94.80;;;;;;5082961;28;20023;-79
2021/11/10 10:01:58;;;;;;;18.08;4.55;;;15.80;94.60;;;;;;5064840;28;20466;-76
2021/11/10 10:04:25;;;;;;;14.18;4.20;;;15.70;93.90;;;;;;5101840;28;20023;-78
2021/11/10 10:06:52;;;;;;;13.70;4.28;;;15.60;93.50;;;;;;5100467;28;20024;-78
2021/11/10 10:09:18;;;;;;;13.88;4.22;;;15.40;93.30;;;;;;5099302;28;20068;-77
2021/11/10 10:11:44;;;;;;;16.35;4.32;;;15.20;93.40;;;;;;5075393;28;20024;-77
2021/11/10 10:14:10;;;;;;;;;;;15.30;94.20;;;;;;5100002;28;20470;-78
2021/11/10 10:16:36;;;;;;;17.23;4.00;;;16.00;95.40;;;;;;5099366;28;19904;-77
2021/11/10 10:19:10;;;;;;;17.35;5.68;;;16.70;95.00;;;;;;5100806;28;20063;-77
2021/11/10 10:21:40;;;;;;;14.15;3.90;;;17.00;93.60;;;;;;5102003;28;20386;-78
2021/11/10 10:24:08;;;;;;;12.75;4.28;;;17.10;93.50;;;;;;5100179;28;20401;-77
2021/11/10 10:26:34;;;;;;;14.88;4.75;;;17.30;93.30;;;;;;5100125;28;20489;-78
2021/11/10 10:29:07;;;;;;;13.63;3.75;;;17.70;92.90;;;;;;5099412;28;20051;-77
2021/11/10 10:31:33;;;;;;;11.18;3.70;;;17.80;91.40;;;;;;5099681;28;20012;-77
2021/11/10 10:34:04;;;;;;;8.85;3.63;;;17.30;90.70;;;;;;5101017;28;20023;-78
2021/11/10 10:36:33;;;;;;;9.88;3.65;;;16.90;90.60;;;;;;5101873;28;20018;-77
2021/11/10 10:39:03;;;;;;;12.30;4.10;;;16.30;90.70;;;;;;5099322;28;20406;-78
2021/11/10 10:41:36;;;;;;;12.60;4.10;;;15.90;90.80;;;;;;5094057;28;20036;-77
2021/11/10 10:44:08;;;;;;;10.48;5.35;;;15.50;91.20;;;;;;5091014;28;20053;-78
2021/11/10 10:46:39;;;;;;;12.85;4.40;;;15.30;91.40;;;;;;5090971;28;20027;-77
2021/11/10 10:49:14;;;;;;;14.88;4.25;;;15.10;91.70;;;;;;5098254;28;20024;-78
2021/11/10 10:51:40;;;;;;;23.23;8.38;;;15.40;92.50;;;;;;5100556;28;20059;-78
2021/11/10 10:54:09;;;;;;;18.40;5.72;;;15.60;92.30;;;;;;5098718;28;20045;-78
2021/11/10 10:56:36;;;;;;;17.52;4.53;;;15.80;92.30;;;;;;5100192;28;20338;-79
2021/11/10 10:59:07;;;;;;;8.57;3.10;;;16.20;92.50;;;;;;5101220;28;20076;-78
2021/11/10 11:01:44;;;;;;;15.05;3.95;;;16.90;92.50;;;;;;5093728;28;20036;-79
2021/11/10 11:04:18;;;;;;;10.50;2.85;;;17.70;92.30;;;;;;5089106;28;20054;-79
2021/11/10 11:07:03;;;;;;;15.15;3.85;;;18.50;91.30;;;;;;5090979;28;20111;-78
2021/11/10 11:09:51;;;;;;;18.20;4.88;;;19.10;90.70;;;;;;5089797;28;20397;-80
2021/11/10 11:14:55;;;;;;;9.88;3.13;;;20.00;87.80;;;;;;5110862;28;20076;-78
2021/11/10 11:17:30;;;;;;;10.20;3.40;;;20.30;86.30;;;;;;5110846;28;20086;-78
2021/11/10 11:20:05;;;;;;;17.50;5.05;;;20.50;85.10;;;;;;5109923;28;20020;-78
2021/11/10 11:22:41;;;;;;;12.60;3.10;;;20.50;83.00;;;;;;5115284;28;20023;-78
2021/11/10 11:25:14;;;;;;;15.27;3.97;;;20.20;81.00;;;;;;5115236;28;20027;-78
2021/11/10 11:27:58;;;;;;;10.68;3.25;;;19.90;80.50;;;;;;5113696;28;20563;-78
2021/11/10 11:30:26;;;;;;;12.07;3.72;;;19.70;80.10;;;;;;5114993;28;20026;-79
2021/11/10 11:32:57;;;;;;;10.18;3.20;;;19.60;79.90;;;;;;5115118;28;20035;-77
2021/11/10 11:35:27;;;;;;;12.23;4.00;;;19.20;79.30;;;;;;5114852;28;20020;-77
2021/11/10 11:37:55;;;;;;;9.57;2.70;;;18.80;79.50;;;;;;5113269;28;20473;-78
2021/11/10 11:40:22;;;;;;;15.63;2.88;;;18.70;80.20;;;;;;5114852;28;20055;-76
2021/11/10 11:42:53;;;;;;;20.90;3.47;;;18.70;80.80;;;;;;5114646;28;20386;-75
2021/11/10 11:45:24;;;;;;;8.90;2.58;;;18.70;80.40;;;;;;5114788;28;20461;-77
2021/11/10 11:47:52;;;;;;;11.25;2.40;;;18.80;80.30;;;;;;5112160;28;20059;-76
2021/11/10 11:50:19;;;;;;;8.63;2.35;;;19.00;80.60;;;;;;5113550;28;20031;-79
2021/11/10 11:52:47;;;;;;;12.23;2.72;;;19.20;80.30;;;;;;5114365;28;20096;-76
2021/11/10 11:55:19;;;;;;;15.40;3.20;;;19.30;79.70;;;;;;5114167;28;20023;-77
2021/11/10 11:57:47;;;;;;;13.32;3.67;;;19.50;79.00;;;;;;5112741;28;20038;-77
2021/11/10 12:00:15;;;;;;;17.38;3.40;;;19.60;78.60;;;;;;5112800;28;20031;-76
2021/11/10 12:02:49;;;;;;;12.18;2.20;;;19.60;77.80;;;;;;5114074;28;20020;-78
2021/11/10 12:05:23;;;;;;;11.95;2.90;;;19.50;77.60;;;;;;5079106;28;20043;-77
2021/11/10 12:07:52;;;;;;;8.45;2.10;;;19.50;77.20;;;;;;5096044;28;20471;-77
2021/11/10 12:10:20;;;;;;;12.23;2.53;;;19.50;76.80;;;;;;5094696;28;20024;-79
2021/11/10 12:12:49;;;;;;;10.40;3.10;;;19.30;76.20;;;;;;5096433;28;20026;-78
2021/11/10 12:15:16;;;;;;;10.90;3.20;;;19.10;76.50;;;;;;5102822;28;20028;-78
2021/11/10 12:18:05;;;;;;;12.00;2.20;;;18.90;76.20;;;;;;5098945;28;20028;-78
2021/11/10 12:20:37;;;;;;;14.27;2.95;;;18.80;76.20;;;;;;5102454;28;20063;-78
2021/11/10 12:23:04;;;;;;;9.55;2.30;;;18.70;76.40;;;;;;5108028;28;20027;-77
2021/11/10 12:25:30;;;;;;;8.90;1.80;;;18.50;76.10;;;;;;5103709;28;20085;-77
2021/11/10 12:27:55;;;;;;;;;;;18.30;75.50;;;;;;5102913;28;20364;-77
2021/11/10 12:30:30;;;;;;;14.10;3.60;;;18.10;76.10;;;;;;5099846;28;19961;-78
2021/11/10 12:32:58;;;;;;;9.35;2.42;;;17.80;75.90;;;;;;5097317;28;20036;-78
2021/11/10 12:35:37;;;;;;;12.32;3.45;;;17.60;76.30;;;;;;5113367;28;20026;-75
2021/11/10 12:38:25;;;;;;;11.75;2.63;;;17.50;76.70;;;;;;5109796;28;20029;-78
2021/11/10 12:41:06;;;;;;;10.52;2.30;;;17.40;76.80;;;;;;5104150;27;20032;-78
2021/11/10 12:43:40;;;;;;;13.93;3.20;;;17.20;76.80;;;;;;5095674;28;20039;-78